createdAt,value
2019-02-11T00:00:14.569Z,97.63
2019-02-11T00:01:14.540Z,97.73
2019-02-11T00:02:14.452Z,97.82
2019-02-11T00:03:14.395Z,97.63
2019-02-11T00:04:14.362Z,97.82
2019-02-11T00:05:14.284Z,97.73
2019-02-11T00:06:14.224Z,97.25
2019-02-11T00:07:14.202Z,97.63
2019-02-11T00:08:14.110Z,98.11
2019-02-11T00:09:14.046Z,97.92
2019-02-11T00:10:13.991Z,98.11
2019-02-11T00:11:13.933Z,97.73
2019-02-11T00:12:13.912Z,97.92
2019-02-11T00:13:13.851Z,97.35
2019-02-11T00:14:13.759Z,96.59
2019-02-11T00:15:13.703Z,96.97
2019-02-11T00:16:13.642Z,97.35
2019-02-11T00:17:13.584Z,97.63
2019-02-11T00:18:13.558Z,97.92
2019-02-11T00:19:13.468Z,98.11
2019-02-11T00:20:13.409Z,98.11
2019-02-11T00:21:13.351Z,97.73
2019-02-11T00:22:13.293Z,98.01
2019-02-11T00:23:13.276Z,97.73
2019-02-11T00:24:13.885Z,97.73
2019-02-11T00:25:13.119Z,97.63
2019-02-11T00:26:13.062Z,97.73
2019-02-11T00:27:13.007Z,97.82
2019-02-11T00:28:12.976Z,97.35
2019-02-11T00:29:12.887Z,97.35
2019-02-11T00:30:12.829Z,97.06
2019-02-11T00:31:12.782Z,97.06
2019-02-11T00:32:12.731Z,97.25
2019-02-11T00:33:12.686Z,97.54
2019-02-11T00:34:12.633Z,97.16
2019-02-11T00:35:12.581Z,96.88
2019-02-11T00:36:12.483Z,96.69
2019-02-11T00:37:12.422Z,96.97
2019-02-11T00:38:12.365Z,96.59
2019-02-11T00:39:12.306Z,96.50
2019-02-11T00:40:12.279Z,96.59
2019-02-11T00:41:12.190Z,96.78
2019-02-11T00:42:12.134Z,96.31
2019-02-11T00:43:18.891Z,96.21
2019-02-11T00:44:12.018Z,96.40
2019-02-11T00:45:11.960Z,95.93
2019-02-11T00:46:11.939Z,95.64
2019-02-11T00:47:11.845Z,95.36
2019-02-11T00:48:11.786Z,95.74
2019-02-11T00:49:11.728Z,95.93
2019-02-11T00:50:11.665Z,95.93
2019-02-11T00:51:11.640Z,95.93
2019-02-11T00:52:11.551Z,95.12
2019-02-11T00:53:11.525Z,95.74
2019-02-11T00:54:11.434Z,96.02
2019-02-11T00:55:11.377Z,94.98
2019-02-11T00:56:11.320Z,94.98
2019-02-11T00:57:11.261Z,95.59
2019-02-11T00:58:11.234Z,95.69
2019-02-11T00:59:11.150Z,94.93
2019-02-11T01:00:11.087Z,95.03
2019-02-11T01:01:11.028Z,95.40
2019-02-11T01:02:10.968Z,95.31
2019-02-11T01:03:10.943Z,94.93
2019-02-11T01:04:10.854Z,95.31
2019-02-11T01:05:10.794Z,94.74
2019-02-11T01:06:10.738Z,95.31
2019-02-11T01:07:10.683Z,95.31
2019-02-11T01:08:10.650Z,94.93
2019-02-11T01:09:10.596Z,94.56
2019-02-11T01:10:10.505Z,95.12
2019-02-11T01:11:10.442Z,94.93
2019-02-11T01:12:10.388Z,95.12
2019-02-11T01:13:10.359Z,95.12
2019-02-11T01:14:10.271Z,94.93
2019-02-11T01:15:10.244Z,95.69
2019-02-11T01:16:10.154Z,96.07
2019-02-11T01:17:10.093Z,95.50
2019-02-11T01:18:10.038Z,94.93
2019-02-11T01:19:09.977Z,94.93
2019-02-11T01:20:09.956Z,95.12
2019-02-11T01:21:09.860Z,95.31
2019-02-11T01:22:09.802Z,94.93
2019-02-11T01:23:09.746Z,94.84
2019-02-11T01:24:09.687Z,94.74
2019-02-11T01:25:09.657Z,95.12
2019-02-11T01:26:09.566Z,94.84
2019-02-11T01:27:09.513Z,94.65
2019-02-11T01:28:09.455Z,94.93
2019-02-11T01:29:09.394Z,94.46
2019-02-11T01:30:09.366Z,94.46
2019-02-11T01:31:09.276Z,93.99
2019-02-11T01:32:09.222Z,93.99
2019-02-11T01:33:09.159Z,93.99
2019-02-11T01:34:09.102Z,94.08
2019-02-11T01:35:09.074Z,93.99
2019-02-11T01:36:08.985Z,94.27
2019-02-11T01:37:08.937Z,93.89
2019-02-11T01:38:08.866Z,94.08
2019-02-11T01:39:08.810Z,93.99
2019-02-11T01:40:08.792Z,93.99
2019-02-11T01:41:08.690Z,93.80
2019-02-11T01:42:08.635Z,93.80
2019-02-11T01:43:08.576Z,93.99
2019-02-11T01:44:08.521Z,93.80
2019-02-11T01:45:08.487Z,93.99
2019-02-11T01:46:08.398Z,93.89
2019-02-11T01:47:08.343Z,93.99
2019-02-11T01:48:08.283Z,93.99
2019-02-11T01:49:08.259Z,93.99
2019-02-11T01:50:08.165Z,93.80
2019-02-11T01:51:08.139Z,94.27
2019-02-11T01:52:08.047Z,93.13
2019-02-11T01:53:07.986Z,93.32
2019-02-11T01:54:07.930Z,93.51
2019-02-11T01:55:07.891Z,93.32
2019-02-11T01:56:07.853Z,93.42
2019-02-11T01:57:07.752Z,93.80
2019-02-11T01:58:07.695Z,93.99
2019-02-11T01:59:07.641Z,93.47
2019-02-11T02:00:07.630Z,93.42
2019-02-11T02:01:07.559Z,93.56
2019-02-11T02:02:07.460Z,93.61
2019-02-11T02:03:07.405Z,93.18
2019-02-11T02:04:07.343Z,93.47
2019-02-11T02:05:07.285Z,93.51
2019-02-11T02:06:07.265Z,93.56
2019-02-11T02:07:07.169Z,93.23
2019-02-11T02:08:07.152Z,93.23
2019-02-11T02:09:07.050Z,92.76
2019-02-11T02:10:07.021Z,92.71
2019-02-11T02:11:06.971Z,93.04
2019-02-11T02:12:06.875Z,92.99
2019-02-11T02:13:06.849Z,93.13
2019-02-11T02:14:06.756Z,92.94
2019-02-11T02:15:06.700Z,92.71
2019-02-11T02:16:06.640Z,92.90
2019-02-11T02:17:06.586Z,92.94
2019-02-11T02:18:06.588Z,92.99
2019-02-11T02:19:06.465Z,93.23
2019-02-11T02:20:06.408Z,92.80
2019-02-11T02:21:06.346Z,92.94
2019-02-11T02:22:06.317Z,92.71
2019-02-11T02:23:06.229Z,93.09
2019-02-11T02:24:06.210Z,93.32
2019-02-11T02:25:06.112Z,93.09
2019-02-11T02:26:06.055Z,92.90
2019-02-11T02:27:05.995Z,92.71
2019-02-11T02:28:05.936Z,92.71
2019-02-11T02:29:05.906Z,92.90
2019-02-11T02:30:05.822Z,92.90
2019-02-11T02:31:05.761Z,92.80
2019-02-11T02:32:05.733Z,92.71
2019-02-11T02:33:05.643Z,92.71
2019-02-11T02:34:05.584Z,92.90
2019-02-11T02:35:05.560Z,92.80
2019-02-11T02:36:05.468Z,92.90
2019-02-11T02:37:05.408Z,92.90
2019-02-11T02:38:05.351Z,93.09
2019-02-11T02:39:05.298Z,92.90
2019-02-11T02:40:05.259Z,92.99
2019-02-11T02:41:05.207Z,93.28
2019-02-11T02:42:05.116Z,93.28
2019-02-11T02:43:05.057Z,92.24
2019-02-11T02:44:05.000Z,93.18
2019-02-11T02:45:04.979Z,92.33
2019-02-11T02:46:04.882Z,92.71
2019-02-11T02:47:04.823Z,92.90
2019-02-11T02:48:04.765Z,92.33
2019-02-11T02:49:04.708Z,92.61
2019-02-11T02:50:04.688Z,92.33
2019-02-11T02:51:04.587Z,92.33
2019-02-11T02:52:04.535Z,92.71
2019-02-11T02:53:04.472Z,92.61
2019-02-11T02:54:04.415Z,92.14
2019-02-11T02:55:04.389Z,92.43
2019-02-11T02:56:04.294Z,92.43
2019-02-11T02:57:04.286Z,92.43
2019-02-11T02:58:04.208Z,92.43
2019-02-11T02:59:04.118Z,92.33
2019-02-11T03:00:04.058Z,92.33
2019-02-11T03:01:03.999Z,92.43
2019-02-11T03:02:03.945Z,92.52
2019-02-11T03:03:03.915Z,92.43
2019-02-11T03:04:03.855Z,92.24
2019-02-11T03:05:03.766Z,92.24
2019-02-11T03:06:03.712Z,92.61
2019-02-11T03:07:03.698Z,92.52
2019-02-11T03:08:03.592Z,92.05
2019-02-11T03:09:03.561Z,92.33
2019-02-11T03:10:03.481Z,92.43
2019-02-11T03:11:03.415Z,92.61
2019-02-11T03:12:03.354Z,92.43
2019-02-11T03:13:03.297Z,92.14
2019-02-11T03:14:05.780Z,92.14
2019-02-11T03:15:03.178Z,91.86
2019-02-11T03:16:03.117Z,91.96
2019-02-11T03:17:03.061Z,92.24
2019-02-11T03:18:03.002Z,92.52
2019-02-11T03:19:02.974Z,92.24
2019-02-11T03:20:02.890Z,92.14
2019-02-11T03:21:02.827Z,91.77
2019-02-11T03:22:02.770Z,92.14
2019-02-11T03:23:02.707Z,92.14
2019-02-11T03:24:02.682Z,92.43
2019-02-11T03:25:02.589Z,92.24
2019-02-11T03:26:02.558Z,92.24
2019-02-11T03:27:02.473Z,92.33
2019-02-11T03:28:02.415Z,91.77
2019-02-11T03:29:02.387Z,91.96
2019-02-11T03:30:02.298Z,92.14
2019-02-11T03:31:02.269Z,92.05
2019-02-11T03:32:02.178Z,92.05
2019-02-11T03:33:02.123Z,92.14
2019-02-11T03:34:02.066Z,91.96
2019-02-11T03:35:02.004Z,91.96
2019-02-11T03:36:01.980Z,92.05
2019-02-11T03:37:01.888Z,92.05
2019-02-11T03:38:01.830Z,92.14
2019-02-11T03:39:01.774Z,91.86
2019-02-11T03:40:01.825Z,92.05
2019-02-11T03:41:01.727Z,91.86
2019-02-11T03:42:01.590Z,92.05
2019-02-11T03:43:01.563Z,92.05
2019-02-11T03:44:01.475Z,92.05
2019-02-11T03:45:01.419Z,91.96
2019-02-11T03:46:01.356Z,92.14
2019-02-11T03:47:01.300Z,91.96
2019-02-11T03:48:01.275Z,91.77
2019-02-11T03:49:01.183Z,92.05
2019-02-11T03:50:01.121Z,92.14
2019-02-11T03:51:01.067Z,91.48
2019-02-11T03:52:01.003Z,91.77
2019-02-11T03:53:00.992Z,91.96
2019-02-11T03:54:00.887Z,91.96
2019-02-11T03:55:00.825Z,91.96
2019-02-11T03:56:00.769Z,91.96
2019-02-11T03:57:00.710Z,92.14
2019-02-11T03:58:00.691Z,92.14
2019-02-11T03:59:00.592Z,92.33
2019-02-11T04:00:00.539Z,92.24
2019-02-11T04:01:00.475Z,92.24
2019-02-11T04:02:00.418Z,92.24
2019-02-11T04:03:00.387Z,92.43
2019-02-11T04:04:00.332Z,92.24
2019-02-11T04:05:00.309Z,92.43
2019-02-11T04:06:00.181Z,92.24
2019-02-11T04:07:00.122Z,92.24
2019-02-11T04:08:00.098Z,92.61
2019-02-11T04:09:00.004Z,92.24
2019-02-11T04:09:59.989Z,92.33
2019-02-11T04:10:59.887Z,92.24
2019-02-11T04:11:59.828Z,92.24
2019-02-11T04:12:59.768Z,92.33
2019-02-11T04:13:59.710Z,92.33
2019-02-11T04:14:59.684Z,92.43
2019-02-11T04:15:59.595Z,92.14
2019-02-11T04:16:59.534Z,92.14
2019-02-11T04:17:59.476Z,92.43
2019-02-11T04:18:59.448Z,92.14
2019-02-11T04:19:59.358Z,92.52
2019-02-11T04:20:59.304Z,92.43
2019-02-11T04:21:59.241Z,92.52
2019-02-11T04:22:59.218Z,92.61
2019-02-11T04:23:59.124Z,92.33
2019-02-11T04:24:59.067Z,92.33
2019-02-11T04:25:59.008Z,92.24
2019-02-11T04:26:58.948Z,92.33
2019-02-11T04:27:58.926Z,92.33
2019-02-11T04:28:58.830Z,93.18
2019-02-11T04:29:58.773Z,92.33
2019-02-11T04:30:58.712Z,93.18
2019-02-11T04:31:58.654Z,93.28
2019-02-11T04:32:58.629Z,92.90
2019-02-11T04:33:58.535Z,92.90
2019-02-11T04:34:58.477Z,92.90
2019-02-11T04:35:58.447Z,92.80
2019-02-11T04:36:58.359Z,92.71
2019-02-11T04:37:58.305Z,93.28
2019-02-11T04:38:58.273Z,92.99
2019-02-11T04:39:58.184Z,93.09
2019-02-11T04:40:58.122Z,92.90
2019-02-11T04:41:58.066Z,93.09
2019-02-11T04:42:58.029Z,93.47
2019-02-11T04:43:57.946Z,92.99
2019-02-11T04:44:57.889Z,93.61
2019-02-11T04:45:57.861Z,93.18
2019-02-11T04:46:57.769Z,93.47
2019-02-11T04:47:57.741Z,93.94
2019-02-11T04:48:57.657Z,93.56
2019-02-11T04:49:57.596Z,93.85
2019-02-11T04:50:57.539Z,93.66
2019-02-11T04:51:58.907Z,93.85
2019-02-11T04:52:57.422Z,93.94
2019-02-11T04:53:57.390Z,93.89
2019-02-11T04:54:57.310Z,93.75
2019-02-11T04:55:57.244Z,93.66
2019-02-11T04:56:57.187Z,93.94
2019-02-11T04:57:57.126Z,94.04
2019-02-11T04:58:57.142Z,93.61
2019-02-11T04:59:57.014Z,93.89
2019-02-11T05:00:56.954Z,93.80
2019-02-11T05:01:56.898Z,93.70
2019-02-11T05:02:56.904Z,93.85
2019-02-11T05:03:56.810Z,94.27
2019-02-11T05:04:56.773Z,94.18
2019-02-11T05:05:56.675Z,94.18
2019-02-11T05:06:56.594Z,93.99
2019-02-11T05:07:56.542Z,93.99
2019-02-11T05:08:56.486Z,93.99
2019-02-11T05:09:56.415Z,93.99
2019-02-11T05:10:56.391Z,94.18
2019-02-11T05:11:56.300Z,94.65
2019-02-11T05:12:56.243Z,94.70
2019-02-11T05:13:56.217Z,94.65
2019-02-11T05:14:56.127Z,94.93
2019-02-11T05:15:56.063Z,94.74
2019-02-11T05:16:56.047Z,94.46
2019-02-11T05:17:55.948Z,94.65
2019-02-11T05:18:55.886Z,94.84
2019-02-11T05:19:55.830Z,94.93
2019-02-11T05:20:55.812Z,94.84
2019-02-11T05:21:55.738Z,94.93
2019-02-11T05:22:55.651Z,94.60
2019-02-11T05:23:55.592Z,94.27
2019-02-11T05:24:55.533Z,94.84
2019-02-11T05:25:55.526Z,94.93
2019-02-11T05:26:55.419Z,94.70
2019-02-11T05:27:55.359Z,94.93
2019-02-11T05:28:55.346Z,94.84
2019-02-11T05:29:55.272Z,94.93
2019-02-11T05:30:55.179Z,94.84
2019-02-11T05:31:55.124Z,94.84
2019-02-11T05:32:55.102Z,94.74
2019-02-11T05:33:55.002Z,94.65
2019-02-11T05:34:54.977Z,94.70
2019-02-11T05:35:54.886Z,94.74
2019-02-11T05:36:54.826Z,94.74
2019-02-11T05:37:54.769Z,94.74
2019-02-11T05:38:54.710Z,94.65
2019-02-11T05:39:54.681Z,94.93
2019-02-11T05:40:54.591Z,94.84
2019-02-11T05:41:54.529Z,94.84
2019-02-11T05:42:54.476Z,94.74
2019-02-11T05:43:54.415Z,94.74
2019-02-11T05:44:54.483Z,94.65
2019-02-11T05:45:54.298Z,94.65
2019-02-11T05:46:54.238Z,94.37
2019-02-11T05:47:54.179Z,94.74
2019-02-11T05:48:54.119Z,94.46
2019-02-11T05:49:54.095Z,94.65
2019-02-11T05:50:54.002Z,94.84
2019-02-11T05:51:53.944Z,94.46
2019-02-11T05:52:53.884Z,94.65
2019-02-11T05:53:53.827Z,94.65
2019-02-11T05:54:53.800Z,94.37
2019-02-11T05:55:53.743Z,94.56
2019-02-11T05:56:53.649Z,94.65
2019-02-11T05:57:53.592Z,94.93
2019-02-11T05:58:53.535Z,94.74
2019-02-11T05:59:53.473Z,95.03
2019-02-11T06:00:53.544Z,95.12
2019-02-11T06:01:53.354Z,95.12
2019-02-11T06:02:53.297Z,95.31
2019-02-11T06:03:53.241Z,95.03
2019-02-11T06:04:53.179Z,95.31
2019-02-11T06:05:53.154Z,94.84
2019-02-11T06:06:53.060Z,94.93
2019-02-11T06:07:53.004Z,94.84
2019-02-11T06:08:52.945Z,95.88
2019-02-11T06:09:52.886Z,96.07
2019-02-11T06:10:52.864Z,95.69
2019-02-11T06:11:52.769Z,95.69
2019-02-11T06:12:52.711Z,95.88
2019-02-11T06:13:52.652Z,95.88
2019-02-11T06:14:54.207Z,95.59
2019-02-11T06:15:52.630Z,95.69
2019-02-11T06:16:52.505Z,95.50
2019-02-11T06:17:52.416Z,95.88
2019-02-11T06:18:52.356Z,96.07
2019-02-11T06:19:52.299Z,96.16
2019-02-11T06:20:52.237Z,96.35
2019-02-11T06:21:52.229Z,96.54
2019-02-11T06:22:52.122Z,96.35
2019-02-11T06:23:52.062Z,96.45
2019-02-11T06:24:52.006Z,95.88
2019-02-11T06:25:51.948Z,96.16
2019-02-11T06:26:51.939Z,96.26
2019-02-11T06:27:51.832Z,95.78
2019-02-11T06:28:51.769Z,96.07
2019-02-11T06:29:51.710Z,96.16
2019-02-11T06:30:51.656Z,95.78
2019-02-11T06:31:51.624Z,96.07
2019-02-11T06:32:51.562Z,96.07
2019-02-11T06:33:51.476Z,96.26
2019-02-11T06:34:51.417Z,96.26
2019-02-11T06:35:51.362Z,96.07
2019-02-11T06:36:51.300Z,96.07
2019-02-11T06:37:51.272Z,96.73
2019-02-11T06:38:51.184Z,95.97
2019-02-11T06:39:51.130Z,96.35
2019-02-11T06:40:51.062Z,96.64
2019-02-11T06:41:51.018Z,96.54
2019-02-11T06:42:50.975Z,96.54
2019-02-11T06:43:50.889Z,96.35
2019-02-11T06:44:50.828Z,96.35
2019-02-11T06:45:50.769Z,96.26
2019-02-11T06:46:50.708Z,96.64
2019-02-11T06:47:50.683Z,96.45
2019-02-11T06:48:50.595Z,96.64
2019-02-11T06:49:50.534Z,96.73
2019-02-11T06:50:50.474Z,96.54
2019-02-11T06:51:50.451Z,96.73
2019-02-11T06:52:50.355Z,96.83
2019-02-11T06:53:50.300Z,97.02
2019-02-11T06:54:50.241Z,96.83
2019-02-11T06:55:50.181Z,96.73
2019-02-11T06:56:50.155Z,96.45
2019-02-11T06:57:50.095Z,96.45
2019-02-11T06:58:50.005Z,96.73
2019-02-11T06:59:49.949Z,96.16
2019-02-11T07:00:49.888Z,96.45
2019-02-11T07:01:49.828Z,96.07
2019-02-11T07:02:49.810Z,95.97
2019-02-11T07:03:49.709Z,96.07
2019-02-11T07:04:49.651Z,96.16
2019-02-11T07:05:49.594Z,96.16
2019-02-11T07:06:49.551Z,96.45
2019-02-11T07:07:49.513Z,96.35
2019-02-11T07:08:49.415Z,96.73
2019-02-11T07:09:49.405Z,96.54
2019-02-11T07:10:55.396Z,96.73
2019-02-11T07:11:49.246Z,96.45
2019-02-11T07:12:49.181Z,97.02
2019-02-11T07:13:49.122Z,97.58
2019-02-11T07:14:49.104Z,97.96
2019-02-11T07:15:49.010Z,97.96
2019-02-11T07:16:48.949Z,97.77
2019-02-11T07:17:48.888Z,99.01
2019-02-11T07:18:48.831Z,99.10
2019-02-11T07:19:48.819Z,99.19
2019-02-11T07:20:48.716Z,99.01
2019-02-11T07:21:48.657Z,99.57
2019-02-11T07:22:48.596Z,99.85
2019-02-11T07:23:48.536Z,99.76
2019-02-11T07:24:48.517Z,99.99
2019-02-11T07:25:48.418Z,99.99
2019-02-11T07:26:48.358Z,99.99
2019-02-11T07:27:48.301Z,99.99
2019-02-11T07:28:48.242Z,99.99
2019-02-11T07:29:48.207Z,99.99
2019-02-11T07:30:48.148Z,99.99
2019-02-11T07:31:48.102Z,99.99
2019-02-11T07:32:48.012Z,99.99
2019-02-11T07:33:47.950Z,99.76
2019-02-11T07:34:47.890Z,99.57
2019-02-11T07:35:47.832Z,99.85
2019-02-11T07:36:47.805Z,99.95
2019-02-11T07:37:47.716Z,99.95
2019-02-11T07:38:47.656Z,99.85
2019-02-11T07:39:47.595Z,99.99
2019-02-11T07:40:47.569Z,99.99
2019-02-11T07:41:47.480Z,99.95
2019-02-11T07:42:47.420Z,99.85
2019-02-11T07:43:47.363Z,99.99
2019-02-11T07:44:47.336Z,99.85
2019-02-11T07:45:47.279Z,99.99
2019-02-11T07:46:47.187Z,99.99
2019-02-11T07:47:47.129Z,99.95
2019-02-11T07:48:47.070Z,99.99
2019-02-11T07:49:47.013Z,99.99
2019-02-11T07:50:46.992Z,99.99
2019-02-11T07:51:46.891Z,99.99
2019-02-11T07:52:46.835Z,99.99
2019-02-11T07:53:46.778Z,99.99
2019-02-11T07:54:46.718Z,99.99
2019-02-11T07:55:46.691Z,99.99
2019-02-11T07:56:46.600Z,99.99
2019-02-11T07:57:46.544Z,99.99
2019-02-11T07:58:46.482Z,99.99
2019-02-11T07:59:46.427Z,99.99
2019-02-11T08:00:46.396Z,99.99
2019-02-11T08:01:46.308Z,99.99
2019-02-11T08:02:46.283Z,99.99
2019-02-11T08:03:46.220Z,99.99
2019-02-11T08:04:46.133Z,99.99
2019-02-11T08:05:46.076Z,99.99
2019-02-11T08:06:46.045Z,99.99
2019-02-11T08:07:45.960Z,99.99
2019-02-11T08:08:45.897Z,99.99
2019-02-11T08:09:45.838Z,99.99
2019-02-11T08:10:45.808Z,99.99
2019-02-11T08:11:45.720Z,99.99
2019-02-11T08:12:45.662Z,99.99
2019-02-11T08:13:45.607Z,99.99
2019-02-11T08:14:45.547Z,99.99
2019-02-11T08:15:45.526Z,99.99
2019-02-11T08:16:45.429Z,99.99
2019-02-11T08:17:46.813Z,99.99
2019-02-11T08:18:45.311Z,99.99
2019-02-11T08:19:45.285Z,99.99
2019-02-11T08:20:45.194Z,99.99
2019-02-11T08:21:45.136Z,99.99
2019-02-11T08:22:45.078Z,99.99
2019-02-11T08:23:45.017Z,99.99
2019-02-11T08:24:45.054Z,99.99
2019-02-11T08:25:44.902Z,99.99
2019-02-11T08:26:44.843Z,99.99
2019-02-11T08:27:44.791Z,99.99
2019-02-11T08:28:44.726Z,99.99
2019-02-11T08:29:46.159Z,99.99
2019-02-11T08:30:44.639Z,99.99
2019-02-11T08:31:44.551Z,99.99
2019-02-11T08:32:44.496Z,99.99
2019-02-11T08:33:44.458Z,99.99
2019-02-11T08:34:44.377Z,99.99
2019-02-11T08:35:44.339Z,99.99
2019-02-11T08:36:44.260Z,99.99
2019-02-11T08:37:44.201Z,99.99
2019-02-11T08:38:44.141Z,99.99
2019-02-11T08:39:44.090Z,99.99
2019-02-11T08:40:44.053Z,99.99
2019-02-11T08:41:45.620Z,99.99
2019-02-11T08:42:43.906Z,99.99
2019-02-11T08:43:43.849Z,99.99
2019-02-11T08:44:43.791Z,99.99
2019-02-11T08:45:47.186Z,99.99
2019-02-11T08:46:43.705Z,99.99
2019-02-11T08:47:43.614Z,99.99
2019-02-11T08:48:43.557Z,99.99
2019-02-11T08:49:43.495Z,99.99
2019-02-11T08:50:43.469Z,99.99
2019-02-11T08:51:43.381Z,99.99
2019-02-11T08:52:43.319Z,99.99
2019-02-11T08:53:43.266Z,99.99
2019-02-11T08:54:43.203Z,99.99
2019-02-11T08:55:43.178Z,99.99
2019-02-11T08:56:43.090Z,99.99
2019-02-11T08:57:43.063Z,99.99
2019-02-11T08:58:42.971Z,99.99
2019-02-11T08:59:42.913Z,99.99
2019-02-11T09:00:42.885Z,99.99
2019-02-11T09:01:42.797Z,99.99
2019-02-11T09:02:42.768Z,99.99
2019-02-11T09:03:42.677Z,99.99
2019-02-11T09:04:42.623Z,99.99
2019-02-11T09:05:42.560Z,99.99
2019-02-11T09:06:42.538Z,99.99
2019-02-11T09:07:42.443Z,99.99
2019-02-11T09:08:42.389Z,99.99
2019-02-11T09:09:42.327Z,99.99
2019-02-11T09:10:42.271Z,99.99
2019-02-11T09:11:42.243Z,99.99
2019-02-11T09:12:42.154Z,99.99
2019-02-11T09:13:42.093Z,99.99
2019-02-11T09:14:42.038Z,99.99
2019-02-11T09:15:42.008Z,99.99
2019-02-11T09:16:41.917Z,99.99
2019-02-11T09:17:41.864Z,99.99
2019-02-11T09:18:41.802Z,99.99
2019-02-11T09:19:41.744Z,99.99
2019-02-11T09:20:42.131Z,99.99
2019-02-11T09:21:41.627Z,99.99
2019-02-11T09:22:41.599Z,99.99
2019-02-11T09:23:41.510Z,99.99
2019-02-11T09:24:41.451Z,99.99
2019-02-11T09:25:41.394Z,99.99
2019-02-11T09:26:41.377Z,99.99
2019-02-11T09:27:41.324Z,99.99
2019-02-11T09:28:41.218Z,99.99
2019-02-11T09:29:41.165Z,99.99
2019-02-11T09:30:41.104Z,99.99
2019-02-11T09:31:41.043Z,99.99
2019-02-11T09:32:41.014Z,99.99
2019-02-11T09:33:40.926Z,99.99
2019-02-11T09:34:40.902Z,99.99
2019-02-11T09:35:40.809Z,99.99
2019-02-11T09:36:40.750Z,99.99
2019-02-11T09:37:40.693Z,99.99
2019-02-11T09:38:40.635Z,99.99
2019-02-11T09:39:40.618Z,99.99
2019-02-11T09:40:40.515Z,99.99
2019-02-11T09:41:40.457Z,99.99
2019-02-11T09:42:40.406Z,99.99
2019-02-11T09:43:40.341Z,99.99
2019-02-11T09:44:40.331Z,99.99
2019-02-11T09:45:40.271Z,99.99
2019-02-11T09:46:40.168Z,99.99
2019-02-11T09:47:40.603Z,99.99
2019-02-11T09:48:40.052Z,99.99
2019-02-11T09:49:40.030Z,99.99
2019-02-11T09:50:39.935Z,99.99
2019-02-11T09:51:39.875Z,99.99
2019-02-11T09:52:39.815Z,99.99
2019-02-11T09:53:39.754Z,99.99
2019-02-11T09:54:39.728Z,99.99
2019-02-11T09:55:39.639Z,99.99
2019-02-11T09:56:39.582Z,99.99
2019-02-11T09:57:39.524Z,99.99
2019-02-11T09:58:39.495Z,99.99
2019-02-11T09:59:39.408Z,99.99
2019-02-11T10:00:39.348Z,99.99
2019-02-11T10:01:39.290Z,99.99
2019-02-11T10:02:39.231Z,99.99
2019-02-11T10:03:39.205Z,99.99
2019-02-11T10:04:39.115Z,99.99
2019-02-11T10:05:39.058Z,99.99
2019-02-11T10:06:38.999Z,99.99
2019-02-11T10:07:38.945Z,99.99
2019-02-11T10:08:38.909Z,99.99
2019-02-11T10:09:38.821Z,99.99
2019-02-11T10:10:38.765Z,99.99
2019-02-11T10:11:38.707Z,99.99
2019-02-11T10:12:38.645Z,99.99
2019-02-11T10:13:38.628Z,99.99
2019-02-11T10:14:38.530Z,99.99
2019-02-11T10:15:38.471Z,99.99
2019-02-11T10:16:38.417Z,99.99
2019-02-11T10:17:38.356Z,99.99
2019-02-11T10:18:38.350Z,99.99
2019-02-11T10:19:38.238Z,99.99
2019-02-11T10:20:38.183Z,99.99
2019-02-11T10:21:38.124Z,99.99
2019-02-11T10:22:38.065Z,99.99
2019-02-11T10:23:38.041Z,99.99
2019-02-11T10:24:37.987Z,99.99
2019-02-11T10:25:37.897Z,99.99
2019-02-11T10:26:37.831Z,99.99
2019-02-11T10:27:37.777Z,99.99
2019-02-11T10:28:37.718Z,99.99
2019-02-11T10:29:37.695Z,99.99
2019-02-11T10:30:37.638Z,99.99
2019-02-11T10:31:37.548Z,99.99
2019-02-11T10:32:37.490Z,99.99
2019-02-11T10:33:37.431Z,99.99
2019-02-11T10:34:37.376Z,99.99
2019-02-11T10:35:42.345Z,99.99
2019-02-11T10:36:37.261Z,99.99
2019-02-11T10:37:37.204Z,99.99
2019-02-11T10:38:37.148Z,99.99
2019-02-11T10:39:37.091Z,99.99
2019-02-11T10:40:37.064Z,99.99
2019-02-11T10:41:36.978Z,99.99
2019-02-11T10:42:36.918Z,99.99
2019-02-11T10:43:36.892Z,99.99
2019-02-11T10:44:36.834Z,99.99
2019-02-11T10:45:36.955Z,99.99
2019-02-11T10:46:36.691Z,99.99
2019-02-11T10:47:36.639Z,99.99
2019-02-11T10:48:36.577Z,99.99
2019-02-11T10:49:36.559Z,99.99
2019-02-11T10:50:36.464Z,99.99
2019-02-11T10:51:36.407Z,99.99
2019-02-11T10:52:36.349Z,99.99
2019-02-11T10:53:36.300Z,99.99
2019-02-11T10:54:36.269Z,99.99
2019-02-11T10:55:36.213Z,99.99
2019-02-11T10:56:36.122Z,99.99
2019-02-11T10:57:36.067Z,99.99
2019-02-11T10:58:36.009Z,99.99
2019-02-11T10:59:35.954Z,99.99
2019-02-11T11:00:35.926Z,99.99
2019-02-11T11:01:35.848Z,99.99
2019-02-11T11:02:35.799Z,99.99
2019-02-11T11:03:35.730Z,99.99
2019-02-11T11:04:35.669Z,99.99
2019-02-11T11:05:35.645Z,99.99
2019-02-11T11:06:35.553Z,99.99
2019-02-11T11:07:35.499Z,99.99
2019-02-11T11:08:35.437Z,99.99
2019-02-11T11:09:35.387Z,99.99
2019-02-11T11:10:35.384Z,99.99
2019-02-11T11:11:35.269Z,99.99
2019-02-11T11:12:35.210Z,99.99
2019-02-11T11:13:35.152Z,99.99
2019-02-11T11:14:35.098Z,99.99
2019-02-11T11:15:35.073Z,99.99
2019-02-11T11:16:34.983Z,99.99
2019-02-11T11:17:34.927Z,99.99
2019-02-11T11:18:34.900Z,99.99
2019-02-11T11:19:34.810Z,99.99
2019-02-11T11:20:34.752Z,99.99
2019-02-11T11:21:34.746Z,99.99
2019-02-11T11:22:34.641Z,99.99
2019-02-11T11:23:34.583Z,99.99
2019-02-11T11:24:34.525Z,99.99
2019-02-11T11:25:34.467Z,99.99
2019-02-11T11:26:34.443Z,99.99
2019-02-11T11:27:34.395Z,99.99
2019-02-11T11:28:34.296Z,99.99
2019-02-11T11:29:34.239Z,99.99
2019-02-11T11:30:34.185Z,99.99
2019-02-11T11:31:34.129Z,99.99
2019-02-11T11:32:34.118Z,99.99
2019-02-11T11:33:35.468Z,99.99
2019-02-11T11:34:33.956Z,99.99
2019-02-11T11:35:33.898Z,99.99
2019-02-11T11:36:33.838Z,99.99
2019-02-11T11:37:33.813Z,99.99
2019-02-11T11:38:33.725Z,99.99
2019-02-11T11:39:33.679Z,99.99
2019-02-11T11:40:33.612Z,99.99
2019-02-11T11:41:33.599Z,99.99
2019-02-11T11:42:33.534Z,99.99
2019-02-11T11:43:33.441Z,99.99
2019-02-11T11:44:33.383Z,99.99
2019-02-11T11:45:33.350Z,99.99
2019-02-11T11:46:45.529Z,99.99
2019-02-11T11:47:34.592Z,99.99
2019-02-11T11:48:33.152Z,99.99
2019-02-11T11:49:33.097Z,99.99
2019-02-11T11:50:33.081Z,99.99
2019-02-11T11:51:32.984Z,99.99
2019-02-11T11:52:32.945Z,99.99
2019-02-11T11:53:32.869Z,99.99
2019-02-11T11:54:32.813Z,99.99
2019-02-11T11:55:32.900Z,99.99
2019-02-11T11:56:32.699Z,99.99
2019-02-11T11:57:32.649Z,99.99
2019-02-11T11:58:32.624Z,99.99
2019-02-11T11:59:32.530Z,99.99
2019-02-11T12:00:32.473Z,99.99
2019-02-11T12:01:32.414Z,99.99
2019-02-11T12:02:32.360Z,99.99
2019-02-11T12:03:32.335Z,99.99
2019-02-11T12:04:32.248Z,99.99
2019-02-11T12:05:32.187Z,99.99
2019-02-11T12:06:32.132Z,99.99
2019-02-11T12:07:32.075Z,99.99
2019-02-11T12:08:32.104Z,99.99
2019-02-11T12:09:31.968Z,99.99
2019-02-11T12:10:31.922Z,99.99
2019-02-11T12:11:31.846Z,99.99
2019-02-11T12:12:31.793Z,99.99
2019-02-11T12:13:31.799Z,99.99
2019-02-11T12:14:31.679Z,99.99
2019-02-11T12:15:31.621Z,99.99
2019-02-11T12:16:31.564Z,99.99
2019-02-11T12:17:31.504Z,99.99
2019-02-11T12:18:31.483Z,99.99
2019-02-11T12:19:31.391Z,99.99
2019-02-11T12:20:33.451Z,99.99
2019-02-11T12:21:31.312Z,99.99
2019-02-11T12:22:31.223Z,99.99
2019-02-11T12:23:31.213Z,99.99
2019-02-11T12:24:31.141Z,99.99
2019-02-11T12:25:31.051Z,99.99
2019-02-11T12:26:31.011Z,99.99
2019-02-11T12:27:30.940Z,99.99
2019-02-11T12:28:30.877Z,99.99
2019-02-11T12:29:30.873Z,99.99
2019-02-11T12:30:30.767Z,99.99
2019-02-11T12:31:30.710Z,99.99
2019-02-11T12:32:30.651Z,99.99
2019-02-11T12:33:30.595Z,99.99
2019-02-11T12:34:30.573Z,99.99
2019-02-11T12:35:30.475Z,99.99
2019-02-11T12:36:30.420Z,99.99
2019-02-11T12:37:30.367Z,99.99
2019-02-11T12:38:30.310Z,99.99
2019-02-11T12:39:30.288Z,99.99
2019-02-11T12:40:30.204Z,99.99
2019-02-11T12:41:30.182Z,99.99
2019-02-11T12:42:30.081Z,99.99
2019-02-11T12:43:30.023Z,99.99
2019-02-11T12:44:29.965Z,99.99
2019-02-11T12:45:29.911Z,99.99
2019-02-11T12:46:29.885Z,99.99
2019-02-11T12:47:29.810Z,99.99
2019-02-11T12:48:29.741Z,99.99
2019-02-11T12:49:29.685Z,99.99
2019-02-11T12:50:29.625Z,99.99
2019-02-11T12:51:29.594Z,99.99